Latest Coastal Weather Observations for Alva Beach

IDQ60701

Issued at 6:05 pm EST Wednesday 22 October 2014 (issued every 10 minutes, with the page automatically refreshed every 10 minutes)

About coastal observations | Map of coastal stations | Coastal observations for QLD | Marine services | Other Formats
Station Details ID: 033295 Name: ALVA BEACH Lat: -19.46 Lon: 147.48 Height: 7.5 m
Data from the previous 72 hours. | See also: Recent months at Alva Beach
Date/Time
EST
Temp

°C
Wind Pressure Rain
since 9am
mm
Weather Cloud Vis
km
Sea
Height
m
Swell
Dir
 
Speed
knots
Gust
knots
hPa Trend Height
m
Period
s
Dir
22/06:00pm 23.2 E 19 25 1017.7 - 0.2 - - - - - - -
22/05:30pm 23.3 E 22 29 1017.3 - 0.2 - - - - - - -
22/05:00pm 23.7 E 20 26 1017.3 - 0.2 - - - - - - -
22/04:30pm 23.9 E 19 25 1017.4 - 0.2 - - - - - - -
22/04:00pm 24.2 E 21 28 1017.3 - 0.2 - - - - - - -
22/03:30pm 24.6 E 19 25 1017.2 - 0.2 - - - - - - -
22/03:00pm 24.9 E 17 23 1017.3 - 0.2 - - - - - - -
22/02:30pm 25.1 E 19 25 1017.5 - 0.2 - - - - - - -
22/02:00pm 25.0 E 18 24 1017.8 - 0.2 - - - - - - -
22/01:30pm 25.4 E 17 23 1018.2 - 0.2 - - - - - - -
22/01:00pm 25.2 E 15 22 1018.7 - 0.2 - - - - - - -
22/12:30pm 24.9 E 15 20 1019.1 - 0.2 - - - - - - -
22/12:00pm 26.3 E 12 18 1019.8 - 0.2 - - - - - - -
22/11:30am 25.8 ESE 10 15 1020.3 - 0.2 - - - - - - -
22/11:00am 25.2 ESE 11 19 1020.4 - 0.2 - - - - - - -
22/10:30am 24.7 ESE 11 19 1020.6 - 0.2 - - - - - - -
22/10:00am 22.9 SE 8 14 1020.7 - 0.2 - - - - - - -
22/09:30am 21.6 SSE 6 10 1020.8 - 0.0 - - - - - - -
22/09:00am 20.6 SSE 7 11 1020.9 - 7.4 - - - - - - -
22/08:30am 19.7 S 6 10 1020.9 - 7.4 - - - - - - -
22/08:00am 19.1 S 7 11 1020.8 - 7.4 - - - - - - -
22/07:30am 19.4 SSE 7 12 1020.5 - 7.0 - - - - - - -
22/07:00am 18.8 S 6 11 1020.2 - 6.8 - - - - - - -
22/06:30am 18.9 S 7 12 1019.8 - 5.6 - - - - - - -
22/06:00am 19.0 SSE 7 12 1019.4 - 5.0 Rain - - - - - -
22/05:30am 19.1 SSE 4 8 1018.9 - 4.2 - - - - - - -
22/05:00am 19.0 SSE 6 9 1018.7 - 3.8 - - - - - - -
22/04:30am 19.4 ESE 13 19 1018.7 - 3.8 - - - - - - -
22/04:04am 20.1 ESE 15 25 1018.5 - 3.0 - - - - - - -
22/04:00am 20.5 ESE 11 20 1018.5 - 3.0 - - - - - - -
22/03:30am 20.7 E 10 15 1018.4 - 3.0 - - - - - - -
22/03:00am 19.6 E 11 16 1018.7 - 3.0 Recent precip. - - - - - -
22/02:30am 19.1 SSE 6 12 1019.0 - 2.4 - - - - - - -
22/02:00am 19.6 S 5 6 1019.1 - 1.0 - - - - - - -
22/01:30am 20.3 SSE 5 8 1019.6 - 1.0 - - - - - - -
22/01:00am 21.7 SE 8 16 1019.9 - 0.0 - - - - - - -
22/12:30am 21.9 ESE 10 17 1020.3 - 0.0 - - - - - - -
22/12:00am 22.0 SE 11 19 1020.7 - 0.0 - - - - - - -
 
Date/Time
EST
Temp

°C
Wind Pressure Rain
since 9am
mm
Weather Cloud Vis
km
Sea
Height
m
Swell
Dir
 
Speed
knots
Gust
knots
hPa Trend Height
m
Period
s
Dir
21/11:30pm 21.9 E 12 17 1020.9 - 0.0 - - - - - - -
21/11:00pm 22.1 ESE 12 18 1021.0 - 0.0 - - - - - - -
21/10:30pm 22.6 E 15 21 1021.0 - 0.0 - - - - - - -
21/10:09pm 22.9 E 16 26 1021.1 - 0.0 - - - - - - -
21/10:00pm 22.7 E 18 26 1021.0 - 0.0 - - - - - - -
21/09:30pm 22.9 E 19 26 1020.8 - 0.0 - - - - - - -
21/09:04pm 23.0 E 19 29 1020.5 - 0.0 - - - - - - -
21/09:00pm 22.9 E 18 26 1020.5 - 0.0 - - - - - - -
21/08:30pm 22.9 E 19 26 1020.2 - 0.0 - - - - - - -
21/08:09pm 22.9 E 18 28 1020.1 - 0.0 - - - - - - -
21/08:00pm 22.9 E 19 28 1019.9 - 0.0 - - - - - - -
21/07:30pm 23.1 E 21 31 1019.6 - 0.0 - - - - - - -
21/07:29pm 23.1 E 21 31 1019.6 - 0.0 - - - - - - -
21/07:00pm 23.0 E 20 29 1019.6 - 0.0 - - - - - - -
21/06:30pm 23.0 E 19 25 1019.5 - 0.0 - - - - - - -
21/06:10pm 23.1 E 17 27 1019.3 - 0.0 - - - - - - -
21/06:00pm 23.3 E 20 26 1019.2 - 0.0 - - - - - - -
21/05:30pm 23.5 E 20 27 1018.7 - 0.0 - - - - - - -
21/05:00pm 23.8 E 19 25 1018.3 - 0.0 - - - - - - -
21/04:30pm 23.8 E 19 27 1017.9 - 0.0 - - - - - - -
21/04:00pm 24.3 E 19 26 1017.9 - 0.0 - - - - - - -
21/03:30pm 24.4 E 18 25 1018.1 - 0.0 - - - - - - -
21/03:00pm 24.7 E 18 23 1018.4 - 0.0 - - - - - - -
21/02:30pm 24.9 E 16 23 1018.6 - 0.0 - - - - - - -
21/02:00pm 25.5 E 14 19 1018.9 - 0.0 - - - - - - -
21/01:30pm 26.1 ESE 14 21 1019.0 - 0.0 - - - - - - -
21/01:00pm 27.0 E 16 23 1019.4 - 0.0 - - - - - - -
21/12:30pm 26.2 E 14 21 1020.0 - 0.0 - - - - - - -
21/12:00pm 27.0 ESE 11 17 1020.4 - 0.0 - - - - - - -
21/11:30am 26.9 E 14 20 1020.9 - 0.0 - - - - - - -
21/11:00am 26.6 E 15 21 1021.2 - 0.0 - - - - - - -
21/10:30am 25.8 ESE 14 22 1021.3 - 0.0 - - - - - - -
21/10:00am 26.1 ESE 11 19 1021.5 - 0.0 - - - - - - -
21/09:30am 25.0 ESE 10 20 1021.4 - 0.0 - - - - - - -
21/09:00am 24.3 ESE 12 19 1021.3 - 0.8 - - - - - - -
21/08:30am 23.0 SE 9 14 1021.0 - 0.8 - - - - - - -
21/08:00am 22.4 SE 11 16 1020.6 - 0.8 - - - - - - -
21/07:30am 22.1 SE 10 17 1020.0 - 0.8 - - - - - - -
21/07:00am 20.3 S 6 9 1019.7 - 0.8 - - - - - - -
21/06:30am 19.7 S 6 10 1019.4 - 0.8 - - - - - - -
21/06:00am 19.0 S 5 10 1019.2 - 0.8 Recent precip. - - - - - -
21/05:30am 18.9 S 5 8 1018.8 - 0.4 - - - - - - -
21/05:00am 19.2 S 6 10 1018.7 - 0.4 - - - - - - -
21/04:30am 19.5 S 5 10 1018.3 - 0.0 - - - - - - -
21/04:00am 21.2 ESE 9 15 1018.1 - 0.0 - - - - - - -
21/03:30am 21.1 ESE 9 13 1017.9 - 0.0 - - - - - - -
21/03:00am 21.1 SE 11 17 1018.0 - 0.0 - - - - - - -
21/02:30am 21.3 ESE 11 18 1018.2 - 0.0 - - - - - - -
21/02:00am 21.2 ESE 8 15 1018.6 - 0.0 - - - - - - -
21/01:30am 21.2 SE 11 20 1019.0 - 0.0 - - - - - - -
21/01:00am 21.3 ESE 14 21 1019.5 - 0.0 - - - - - - -
21/12:30am 21.8 SE 11 18 1019.7 - 0.0 - - - - - - -
21/12:00am 21.8 ESE 11 18 1020.0 - 0.0 - - - - - - -
 
Date/Time
EST
Temp

°C
Wind Pressure Rain
since 9am
mm
Weather Cloud Vis
km
Sea
Height
m
Swell
Dir
 
Speed
knots
Gust
knots
hPa Trend Height
m
Period
s
Dir
20/11:37pm 22.0 ESE 15 26 1020.2 - 0.0 - - - - - - -
20/11:30pm 22.0 ESE 13 21 1020.4 - 0.0 - - - - - - -
20/11:00pm 22.3 ESE 11 20 1020.4 - 0.0 - - - - - - -
20/10:30pm 22.6 E 15 21 1020.6 - 0.0 - - - - - - -
20/10:00pm 22.9 E 17 22 1020.5 - 0.0 - - - - - - -
20/09:30pm 22.4 E 17 24 1020.4 - 0.0 - - - - - - -
20/09:00pm 22.9 E 19 27 1020.0 - 0.0 - - - - - - -
20/08:30pm 22.8 E 18 25 1019.7 - 0.0 - - - - - - -
20/08:00pm 22.9 E 19 25 1019.3 - 0.0 - - - - - - -
20/07:30pm 22.9 E 17 24 1019.1 - 0.0 - - - - - - -
20/07:00pm 23.0 E 17 23 1018.6 - 0.0 - - - - - - -
20/06:30pm 23.3 E 18 23 1018.4 - 0.0 - - - - - - -
20/06:00pm 23.1 E 15 20 1018.3 - 0.0 - - - - - - -
20/05:30pm 23.2 E 16 21 1018.0 - 0.0 - - - - - - -
20/05:00pm 23.7 E 17 24 1017.3 - 0.0 - - - - - - -
20/04:30pm 24.0 E 16 22 1017.0 - 0.0 - - - - - - -
20/04:00pm 24.2 E 17 23 1017.1 - 0.0 - - - - - - -
20/03:30pm 24.4 E 17 23 1017.2 - 0.0 - - - - - - -
20/03:00pm 24.7 E 17 23 1017.3 - 0.0 - - - - - - -
20/02:30pm 25.0 E 15 20 1017.6 - 0.0 - - - - - - -
20/02:00pm 25.0 E 15 20 1017.9 - 0.0 - - - - - - -
20/01:30pm 25.6 E 15 19 1018.3 - 0.0 - - - - - - -
20/01:00pm 26.5 E 15 20 1018.7 - 0.0 - - - - - - -
20/12:30pm 25.4 E 12 18 1019.3 - 0.0 - - - - - - -
20/12:00pm 27.2 ESE 12 17 1020.0 - 0.0 - - - - - - -
20/11:30am 26.5 ESE 12 17 1020.5 - 0.0 - - - - - - -
20/11:00am 26.8 ESE 14 19 1020.7 - 0.0 - - - - - - -
20/10:30am 25.9 ESE 13 22 1021.1 - 0.0 - - - - - - -
20/10:00am 25.7 ESE 11 20 1021.4 - 0.0 - - - - - - -
20/09:30am 24.3 ESE 13 21 1021.6 - 0.0 - - - - - - -
20/09:00am 24.4 ESE 12 18 1021.6 - 1.0 - - - - - - -
20/08:30am 23.5 SE 9 15 1021.7 - 1.0 - - - - - - -
20/08:00am 22.8 SE 7 12 1021.4 - 1.0 - - - - - - -
20/07:30am 22.1 SSE 7 12 1021.3 - 1.0 - - - - - - -
20/07:00am 21.2 SSE 6 11 1021.0 - 1.0 - - - - - - -
20/06:30am 19.2 S 5 9 1020.6 - 1.0 - - - - - - -
20/06:00am 18.2 S 5 9 1020.1 - 1.0 - - - - - - -
20/05:30am 18.1 S 6 11 1019.9 - 1.0 - - - - - - -
20/05:00am 18.2 S 6 10 1019.5 - 1.0 - - - - - - -
20/04:30am 18.2 S 7 11 1019.4 - 1.0 - - - - - - -
20/04:00am 18.3 S 6 9 1019.1 - 1.0 - - - - - - -
20/03:30am 18.4 S 5 7 1019.1 - 1.0 - - - - - - -
20/03:00am 18.7 SSW 4 5 1019.3 - 1.0 Recent precip. - - - - - -
20/02:30am 19.1 SSW 5 9 1019.3 - 0.4 - - - - - - -
20/02:00am 20.9 S 6 9 1019.5 - 0.0 - - - - - - -
20/01:30am 22.0 SE 10 15 1019.7 - 0.0 - - - - - - -
20/01:00am 22.1 ESE 12 20 1019.9 - 0.0 - - - - - - -
20/12:30am 22.0 ESE 13 23 1020.3 - 0.0 - - - - - - -
20/12:00am 22.1 ESE 14 21 1020.3 - 0.0 - - - - - - -
 
Date/Time
EST
Temp

°C
Wind Pressure Rain
since 9am
mm
Weather Cloud Vis
km
Sea
Height
m
Swell
Dir
 
Speed
knots
Gust
knots
hPa Trend Height
m
Period
s
Dir
19/11:30pm 22.1 ESE 13 23 1020.6 - 0.0 - - - - - - -
19/11:00pm 22.1 ESE 14 21 1020.8 - 0.0 - - - - - - -
19/10:30pm 22.3 ESE 16 25 1020.9 - 0.0 - - - - - - -
19/10:00pm 22.5 ESE 16 25 1021.0 - 0.0 - - - - - - -
19/09:30pm 22.7 ESE 16 24 1020.8 - 0.0 - - - - - - -
19/09:20pm 22.8 ESE 16 26 1020.8 - 0.0 - - - - - - -
19/09:00pm 22.8 E 18 25 1020.6 - 0.0 - - - - - - -
19/08:30pm 22.8 ESE 17 25 1020.3 - 0.0 - - - - - - -
19/08:21pm 22.9 ESE 17 27 1020.3 - 0.0 - - - - - - -
19/08:00pm 23.0 E 19 26 1020.0 - 0.0 - - - - - - -
19/07:45pm 23.1 E 19 29 1019.9 - 0.0 - - - - - - -
19/07:30pm 23.0 E 20 29 1019.9 - 0.0 - - - - - - -
19/07:00pm 23.3 E 20 28 1019.6 - 0.0 - - - - - - -
19/06:30pm 23.4 E 20 27 1019.4 - 0.0 - - - - - - -

Other Formats:

Comma delimited format used in spreadsheet applications
http://www.bom.gov.au/fwo/IDQ60701/IDQ60701.95296.axf

JavaScript Object Notation format (JSON) in row-major order
http://www.bom.gov.au/fwo/IDQ60701/IDQ60701.95296.json